Time;durP1;ratioP1;P1;durP2;ratioP2;P2;SDS_P1;SDS_P2;PMS_P1;PMS_P2;Temp;Humidity;BMP_temperature;BMP_pressure;BME280_temperature;BME280_humidity;BME280_pressure;Samples;Min_cycle;Max_cycle;Signal;HPM_P1;HPM_P2
2023/02/18 00:00:56;;;;;;;21.40;19.20;;;;;;;;;;5117731;28;20870;-78
2023/02/18 00:03:23;;;;;;;20.50;19.00;;;;;;;;;;5116570;28;20472;-78
2023/02/18 00:05:50;;;;;;;22.67;20.47;;;;;;;;;;5117012;28;20466;-79
2023/02/18 00:08:18;;;;;;;21.13;19.43;;;;;;;;;;5118108;28;20509;-79
2023/02/18 00:10:46;;;;;;;21.23;19.70;;;;;;;;;;5116721;28;20476;-78
2023/02/18 00:13:13;;;;;;;22.70;20.90;;;;;;;;;;5116163;28;20431;-78
2023/02/18 00:15:40;;;;;;;21.00;19.80;;;;;;;;;;5116437;28;20464;-78
2023/02/18 00:18:07;;;;;;;21.70;20.10;;;;;;;;;;5115658;28;20443;-79
2023/02/18 00:20:35;;;;;;;20.37;18.70;;;;;;;;;;5116696;28;20487;-78
2023/02/18 00:23:02;;;;;;;21.85;20.17;;;;;;;;;;5116344;28;20418;-79
2023/02/18 00:25:30;;;;;;;24.73;22.93;;;;;;;;;;5116836;28;20222;-79
2023/02/18 00:27:57;;;;;;;21.40;19.93;;;;;;;;;;5119515;28;20438;-79
2023/02/18 00:30:24;;;;;;;23.60;21.50;;;;;;;;;;5120684;28;20426;-79
2023/02/18 00:32:51;;;;;;;23.60;21.90;;;;;;;;;;5119847;28;20977;-79
2023/02/18 00:35:18;;;;;;;24.63;22.57;;;;;;;;;;5120807;28;20434;-79
2023/02/18 00:37:45;;;;;;;24.17;22.13;;;;;;;;;;5119729;28;20430;-78
2023/02/18 00:40:13;;;;;;;26.57;24.50;;;;;;;;;;5120433;28;20432;-79
2023/02/18 00:42:41;;;;;;;29.33;26.30;;;;;;;;;;5116934;28;20476;-79
2023/02/18 00:45:08;;;;;;;33.37;30.47;;;;;;;;;;5117479;28;20512;-78
2023/02/18 00:47:35;;;;;;;30.00;27.40;;;;;;;;;;5117869;28;20424;-79
2023/02/18 00:50:02;;;;;;;35.20;31.57;;;;;;;;;;5118202;28;20418;-79
2023/02/18 00:52:29;;;;;;;36.27;32.57;;;;;;;;;;5115943;28;21002;-78
2023/02/18 00:54:56;;;;;;;34.93;31.30;;;;;;;;;;5117513;28;20440;-79
2023/02/18 00:57:23;;;;;;;36.07;32.47;;;;;;;;;;5117734;28;20477;-80
2023/02/18 00:59:52;;;;;;;45.00;34.07;;;;;;;;;;5117690;28;20444;-79
2023/02/18 01:02:19;;;;;;;39.50;35.67;;;;;;;;;;5115011;28;20455;-79
2023/02/18 01:04:46;;;;;;;40.60;36.70;;;;;;;;;;5115734;28;20511;-79
2023/02/18 01:07:12;;;;;;;37.93;34.10;;;;;;;;;;5115998;28;20438;-79
2023/02/18 01:09:39;;;;;;;38.53;34.80;;;;;;;;;;5116473;28;20510;-79
2023/02/18 01:12:07;;;;;;;37.77;34.00;;;;;;;;;;5116748;28;20914;-79
2023/02/18 01:14:34;;;;;;;38.43;33.33;;;;;;;;;;5119819;28;20592;-79
2023/02/18 01:17:02;;;;;;;36.13;32.23;;;;;;;;;;5120317;28;20814;-79
2023/02/18 01:19:29;;;;;;;37.20;33.37;;;;;;;;;;5120375;28;20447;-79
2023/02/18 01:21:56;;;;;;;39.33;35.43;;;;;;;;;;5120040;28;20447;-79
2023/02/18 01:24:23;;;;;;;39.43;35.43;;;;;;;;;;5119800;28;21022;-78
2023/02/18 01:26:50;;;;;;;37.50;33.50;;;;;;;;;;5119091;28;20537;-79
2023/02/18 01:29:17;;;;;;;37.00;33.30;;;;;;;;;;5119652;28;20441;-79
2023/02/18 01:31:44;;;;;;;35.73;32.40;;;;;;;;;;5119522;28;20782;-79
2023/02/18 01:34:14;;;;;;;39.00;35.17;;;;;;;;;;5119493;28;20459;-79
2023/02/18 01:36:40;;;;;;;38.67;34.50;;;;;;;;;;5119104;28;20890;-79
2023/02/18 01:39:07;;;;;;;45.93;36.07;;;;;;;;;;5121063;28;20504;-79
2023/02/18 01:41:34;;;;;;;41.00;36.47;;;;;;;;;;5119077;28;20443;-79
2023/02/18 01:44:15;;;;;;;39.33;34.30;;;;;;;;;;5119534;28;20424;-79
2023/02/18 01:46:42;;;;;;;43.70;37.40;;;;;;;;;;5119081;28;20458;-79
2023/02/18 01:49:09;;;;;;;45.47;37.43;;;;;;;;;;5119734;28;20798;-79
2023/02/18 01:51:39;;;;;;;41.83;37.27;;;;;;;;;;5118745;28;20418;-79
2023/02/18 01:54:08;;;;;;;41.50;37.33;;;;;;;;;;5119635;28;20498;-78
2023/02/18 01:56:36;;;;;;;44.00;39.27;;;;;;;;;;5118880;28;20470;-79
2023/02/18 01:59:06;;;;;;;37.50;33.57;;;;;;;;;;5119678;28;20407;-78
2023/02/18 02:01:33;;;;;;;41.17;36.70;;;;;;;;;;5135234;27;20444;-79
2023/02/18 02:04:00;;;;;;;43.07;38.37;;;;;;;;;;5140192;27;20482;-79
2023/02/18 02:06:27;;;;;;;44.33;39.57;;;;;;;;;;5139555;27;20483;-79
2023/02/18 02:08:58;;;;;;;42.90;38.53;;;;;;;;;;5139330;27;20439;-79
2023/02/18 02:11:40;;;;;;;43.90;37.90;;;;;;;;;;5139568;27;20529;-79
2023/02/18 02:14:14;;;;;;;41.20;37.30;;;;;;;;;;5141267;27;20413;-79
2023/02/18 02:16:45;;;;;;;41.87;37.73;;;;;;;;;;5140289;27;20426;-79
2023/02/18 02:19:29;;;;;;;42.03;37.60;;;;;;;;;;5138499;27;20971;-79
2023/02/18 02:22:18;;;;;;;46.33;38.20;;;;;;;;;;5138498;27;20871;-79
2023/02/18 02:24:58;;;;;;;41.87;37.77;;;;;;;;;;5138771;27;20560;-80
2023/02/18 02:27:26;;;;;;;39.93;35.93;;;;;;;;;;5138909;27;20427;-79
2023/02/18 02:30:13;;;;;;;42.20;36.70;;;;;;;;;;5139080;27;20507;-79
2023/02/18 02:32:52;;;;;;;44.77;35.30;;;;;;;;;;5138870;27;20460;-79
2023/02/18 02:35:22;;;;;;;43.27;38.87;;;;;;;;;;5137868;27;20806;-79
2023/02/18 02:37:54;;;;;;;49.33;41.30;;;;;;;;;;5138216;27;20407;-80
2023/02/18 02:40:24;;;;;;;33.53;29.97;;;;;;;;;;5138516;27;20412;-78
2023/02/18 02:42:58;;;;;;;46.67;38.90;;;;;;;;;;5138315;27;20874;-79
2023/02/18 02:45:29;;;;;;;36.47;32.27;;;;;;;;;;5138288;27;20486;-79
2023/02/18 02:47:59;;;;;;;48.27;39.13;;;;;;;;;;5138485;27;20459;-79
2023/02/18 02:50:31;;;;;;;45.53;37.60;;;;;;;;;;5138441;27;20414;-79
2023/02/18 02:52:59;;;;;;;48.03;41.67;;;;;;;;;;5138212;27;20411;-78
2023/02/18 02:55:26;;;;;;;45.27;39.87;;;;;;;;;;5137466;27;20542;-78
2023/02/18 02:57:54;;;;;;;43.33;38.67;;;;;;;;;;5138132;27;20480;-79
2023/02/18 03:00:24;;;;;;;46.13;40.10;;;;;;;;;;5137945;27;20438;-78
2023/02/18 03:02:59;;;;;;;49.07;42.43;;;;;;;;;;5137217;27;20811;-78
2023/02/18 03:05:32;;;;;;;45.23;40.40;;;;;;;;;;5137855;27;20510;-78
2023/02/18 03:08:09;;;;;;;49.67;43.90;;;;;;;;;;5137347;27;20464;-79
2023/02/18 03:10:49;;;;;;;48.37;40.13;;;;;;;;;;5137984;27;20402;-78
2023/02/18 03:13:26;;;;;;;63.10;45.67;;;;;;;;;;5136597;27;20421;-79
2023/02/18 03:15:56;;;;;;;52.03;43.07;;;;;;;;;;5137438;27;20470;-78
2023/02/18 03:18:25;;;;;;;51.10;41.40;;;;;;;;;;5136940;27;20462;-79
2023/02/18 03:20:57;;;;;;;41.80;37.30;;;;;;;;;;5137881;27;20418;-79
2023/02/18 03:23:27;;;;;;;45.47;40.53;;;;;;;;;;5137400;27;20458;-78
2023/02/18 03:25:56;;;;;;;45.97;39.63;;;;;;;;;;5137268;27;20506;-79
2023/02/18 03:28:24;;;;;;;33.87;30.93;;;;;;;;;;5137626;27;20422;-78
2023/02/18 03:30:53;;;;;;;32.30;29.43;;;;;;;;;;5137716;27;20423;-78
2023/02/18 03:33:23;;;;;;;37.47;33.87;;;;;;;;;;5137109;27;20467;-78
2023/02/18 03:35:50;;;;;;;42.50;38.03;;;;;;;;;;5136001;27;20460;-79
2023/02/18 03:38:21;;;;;;;40.90;36.70;;;;;;;;;;5136882;27;20505;-79
2023/02/18 03:40:48;;;;;;;41.10;37.00;;;;;;;;;;5136887;27;20901;-79
2023/02/18 03:43:15;;;;;;;45.00;40.23;;;;;;;;;;5136467;27;20509;-79
2023/02/18 03:45:42;;;;;;;39.73;36.10;;;;;;;;;;5136211;27;21033;-79
2023/02/18 03:48:09;;;;;;;39.40;35.50;;;;;;;;;;5137063;27;20429;-79
2023/02/18 03:50:36;;;;;;;40.77;36.83;;;;;;;;;;5136883;27;20428;-78
2023/02/18 03:53:03;;;;;;;41.00;37.70;;;;;;;;;;5136194;27;20451;-79
2023/02/18 03:55:31;;;;;;;44.03;39.67;;;;;;;;;;5136396;27;20489;-78
2023/02/18 03:57:58;;;;;;;47.13;42.13;;;;;;;;;;5137107;27;20771;-78
2023/02/18 04:00:25;;;;;;;42.90;38.80;;;;;;;;;;5137026;27;20426;-79
2023/02/18 04:02:52;;;;;;;45.70;41.10;;;;;;;;;;5136589;27;20812;-79
2023/02/18 04:05:19;;;;;;;51.07;43.70;;;;;;;;;;5136810;27;20468;-79
2023/02/18 04:07:46;;;;;;;48.40;43.63;;;;;;;;;;5136332;27;20470;-80
2023/02/18 04:10:13;;;;;;;44.60;40.10;;;;;;;;;;5137504;27;20474;-78
2023/02/18 04:12:41;;;;;;;48.10;43.13;;;;;;;;;;5137284;27;20866;-79
2023/02/18 04:15:09;;;;;;;43.30;39.03;;;;;;;;;;5137326;27;20500;-79
2023/02/18 04:17:36;;;;;;;56.40;46.23;;;;;;;;;;5136788;27;20442;-79
2023/02/18 04:20:03;;;;;;;50.60;43.13;;;;;;;;;;5137920;27;20426;-79
2023/02/18 04:22:30;;;;;;;52.10;46.90;;;;;;;;;;5136525;27;20464;-79
2023/02/18 04:24:58;;;;;;;48.37;43.83;;;;;;;;;;5136943;27;20805;-79
2023/02/18 04:27:25;;;;;;;53.03;47.17;;;;;;;;;;5136794;27;20960;-79
2023/02/18 04:29:53;;;;;;;54.83;47.33;;;;;;;;;;5137183;27;20450;-79
2023/02/18 04:32:20;;;;;;;57.80;47.27;;;;;;;;;;5136882;27;20452;-79
2023/02/18 04:34:47;;;;;;;52.40;46.67;;;;;;;;;;5136625;27;20408;-78
2023/02/18 04:37:14;;;;;;;64.37;52.10;;;;;;;;;;5137161;27;20496;-79
2023/02/18 04:39:41;;;;;;;55.03;50.17;;;;;;;;;;5137449;27;20436;-79
2023/02/18 04:42:09;;;;;;;57.77;51.97;;;;;;;;;;5136772;27;20551;-79
2023/02/18 04:44:36;;;;;;;65.60;52.20;;;;;;;;;;5137200;27;20919;-80
2023/02/18 04:47:05;;;;;;;69.60;55.37;;;;;;;;;;5134963;27;20481;-80
2023/02/18 04:49:32;;;;;;;56.80;50.20;;;;;;;;;;5136868;27;20778;-78
2023/02/18 04:51:59;;;;;;;78.13;54.80;;;;;;;;;;5136332;27;20512;-79
2023/02/18 04:54:26;;;;;;;62.00;52.60;;;;;;;;;;5136893;27;20407;-79
2023/02/18 04:56:53;;;;;;;81.33;68.60;;;;;;;;;;5136028;27;21003;-78
2023/02/18 04:59:20;;;;;;;57.23;51.20;;;;;;;;;;5137102;28;20439;-79
2023/02/18 05:01:48;;;;;;;56.90;50.90;;;;;;;;;;5135857;28;20541;-79
2023/02/18 05:04:17;;;;;;;58.50;51.50;;;;;;;;;;5137141;28;20430;-79
2023/02/18 05:06:44;;;;;;;50.53;45.63;;;;;;;;;;5135546;27;20523;-78
2023/02/18 05:09:11;;;;;;;51.50;45.93;;;;;;;;;;5137103;28;20404;-79
2023/02/18 05:11:38;;;;;;;46.67;42.03;;;;;;;;;;5136323;27;20437;-78
2023/02/18 05:14:05;;;;;;;50.50;45.40;;;;;;;;;;5136702;28;20414;-79
2023/02/18 05:16:32;;;;;;;47.57;42.87;;;;;;;;;;5135520;27;20431;-79
2023/02/18 05:18:59;;;;;;;54.47;46.17;;;;;;;;;;5136598;28;20403;-79
2023/02/18 05:21:28;;;;;;;60.73;49.40;;;;;;;;;;5136652;28;20448;-80
2023/02/18 05:23:55;;;;;;;49.97;44.90;;;;;;;;;;5136861;28;20485;-79
2023/02/18 05:26:22;;;;;;;51.37;46.17;;;;;;;;;;5136505;28;20533;-78
2023/02/18 05:28:49;;;;;;;55.77;49.73;;;;;;;;;;5136533;27;20480;-79
2023/02/18 05:31:16;;;;;;;56.27;50.10;;;;;;;;;;5137293;28;20411;-80
2023/02/18 05:33:43;;;;;;;42.03;38.67;;;;;;;;;;5137015;28;20426;-79
2023/02/18 05:36:10;;;;;;;48.23;43.40;;;;;;;;;;5136829;28;20820;-79
2023/02/18 05:38:38;;;;;;;47.03;42.73;;;;;;;;;;5135861;27;20533;-78
2023/02/18 05:41:05;;;;;;;58.30;50.70;;;;;;;;;;5137084;28;20426;-79
2023/02/18 05:44:28;;;;;;;49.00;43.67;;;;;;;;;;5136220;28;20828;-79
2023/02/18 05:46:20;;;;;;;50.57;45.67;;;;;;;;;;5135963;28;20479;-79
2023/02/18 05:48:47;;;;;;;48.63;44.33;;;;;;;;;;5136149;27;20466;-79
2023/02/18 05:51:14;;;;;;;47.23;42.67;;;;;;;;;;5137837;28;20457;-81
2023/02/18 05:53:42;;;;;;;42.67;38.93;;;;;;;;;;5138982;28;20444;-79
2023/02/18 05:56:09;;;;;;;39.63;36.70;;;;;;;;;;5138506;28;20507;-80
2023/02/18 05:58:36;;;;;;;44.20;40.20;;;;;;;;;;5141632;27;20466;-80
2023/02/18 06:01:04;;;;;;;44.07;40.20;;;;;;;;;;5143333;27;20432;-79
2023/02/18 06:03:30;;;;;;;41.30;38.10;;;;;;;;;;5142139;27;20928;-79
2023/02/18 06:05:57;;;;;;;44.33;40.83;;;;;;;;;;5141747;27;20514;-80
2023/02/18 06:08:24;;;;;;;47.10;42.60;;;;;;;;;;5142079;27;20430;-79
2023/02/18 06:10:53;;;;;;;41.00;37.33;;;;;;;;;;5143266;27;20419;-79
2023/02/18 06:13:20;;;;;;;40.47;37.37;;;;;;;;;;5141497;27;20552;-79
2023/02/18 06:15:50;;;;;;;43.10;39.77;;;;;;;;;;5142199;27;20499;-80
2023/02/18 06:18:17;;;;;;;43.37;40.07;;;;;;;;;;5142116;27;20396;-79
2023/02/18 06:20:44;;;;;;;46.53;42.27;;;;;;;;;;5143820;27;20902;-80
2023/02/18 06:23:11;;;;;;;46.67;41.97;;;;;;;;;;5144762;27;20427;-80
2023/02/18 06:25:38;;;;;;;57.30;52.30;;;;;;;;;;5144739;27;20480;-80
2023/02/18 06:28:07;;;;;;;54.40;49.53;;;;;;;;;;5145743;27;20453;-80
2023/02/18 06:30:34;;;;;;;52.10;48.30;;;;;;;;;;5145034;27;20449;-80
2023/02/18 06:33:03;;;;;;;51.57;48.17;;;;;;;;;;5144695;27;20798;-81
2023/02/18 06:35:30;;;;;;;49.73;46.13;;;;;;;;;;5145457;27;20456;-80
2023/02/18 06:37:57;;;;;;;45.90;43.10;;;;;;;;;;5145126;27;20523;-80
2023/02/18 06:40:24;;;;;;;49.67;46.20;;;;;;;;;;5146252;27;20407;-82
2023/02/18 06:42:51;;;;;;;48.50;45.37;;;;;;;;;;5145073;27;20434;-81
2023/02/18 06:45:19;;;;;;;49.87;46.73;;;;;;;;;;5145526;27;20451;-80
2023/02/18 06:47:46;;;;;;;45.63;42.93;;;;;;;;;;5145626;27;20484;-81
2023/02/18 06:50:13;;;;;;;46.60;43.50;;;;;;;;;;5146325;27;20447;-81
2023/02/18 06:52:40;;;;;;;47.87;44.90;;;;;;;;;;5144975;27;20488;-81
2023/02/18 06:55:08;;;;;;;49.23;46.53;;;;;;;;;;5145043;27;20504;-81
2023/02/18 06:57:35;;;;;;;52.30;49.37;;;;;;;;;;5145548;27;20421;-81
2023/02/18 07:00:02;;;;;;;51.47;48.17;;;;;;;;;;5145408;27;20430;-81
2023/02/18 07:02:30;;;;;;;48.43;45.73;;;;;;;;;;5144055;27;20410;-81
2023/02/18 07:04:57;;;;;;;48.67;46.00;;;;;;;;;;5145026;27;20491;-81
2023/02/18 07:07:24;;;;;;;52.57;49.60;;;;;;;;;;5145024;27;20446;-81
2023/02/18 07:09:51;;;;;;;50.80;47.93;;;;;;;;;;5142670;27;20996;-81
2023/02/18 07:12:18;;;;;;;51.87;48.70;;;;;;;;;;5143552;27;20418;-80
2023/02/18 07:14:45;;;;;;;52.40;49.57;;;;;;;;;;5145461;27;20419;-81
2023/02/18 07:17:12;;;;;;;54.43;50.93;;;;;;;;;;5145345;27;20475;-81
2023/02/18 07:19:41;;;;;;;49.90;47.30;;;;;;;;;;5144715;27;20437;-79
2023/02/18 07:22:08;;;;;;;54.73;51.93;;;;;;;;;;5141577;27;20464;-80
2023/02/18 07:24:35;;;;;;;51.50;48.80;;;;;;;;;;5144157;27;20427;-81
2023/02/18 07:27:02;;;;;;;49.97;47.17;;;;;;;;;;5142832;27;21030;-80
2023/02/18 07:29:29;;;;;;;52.33;49.53;;;;;;;;;;5144225;27;20456;-81
2023/02/18 07:31:56;;;;;;;54.50;51.53;;;;;;;;;;5143628;27;20434;-81
2023/02/18 07:34:23;;;;;;;54.17;51.07;;;;;;;;;;5144690;27;20437;-80
2023/02/18 07:36:51;;;;;;;49.73;47.03;;;;;;;;;;5142923;27;20856;-81
2023/02/18 07:39:19;;;;;;;50.73;48.03;;;;;;;;;;5145069;27;20421;-83
2023/02/18 07:41:46;;;;;;;47.57;44.80;;;;;;;;;;5139978;27;20931;-83
2023/02/18 07:44:13;;;;;;;45.10;42.80;;;;;;;;;;5140901;27;20467;-82
2023/02/18 07:46:41;;;;;;;48.03;45.40;;;;;;;;;;5140723;27;20492;-82
2023/02/18 07:49:08;;;;;;;50.97;48.03;;;;;;;;;;5140998;27;20763;-82
2023/02/18 07:51:37;;;;;;;48.03;45.10;;;;;;;;;;5139519;27;20446;-82
2023/02/18 07:54:05;;;;;;;49.10;46.10;;;;;;;;;;5140420;27;20447;-82
2023/02/18 07:56:32;;;;;;;47.27;44.43;;;;;;;;;;5139163;27;20435;-82
2023/02/18 07:58:59;;;;;;;47.30;44.30;;;;;;;;;;5140342;27;20560;-82
2023/02/18 08:01:26;;;;;;;45.93;43.43;;;;;;;;;;5139530;27;20437;-83
2023/02/18 08:03:53;;;;;;;46.03;43.37;;;;;;;;;;5141398;27;20444;-82
2023/02/18 08:06:22;;;;;;;48.07;45.37;;;;;;;;;;5143737;27;20481;-81
2023/02/18 08:08:48;;;;;;;45.30;42.90;;;;;;;;;;5144250;27;20444;-82
2023/02/18 08:11:17;;;;;;;46.47;43.67;;;;;;;;;;5139942;27;20513;-83
2023/02/18 08:13:44;;;;;;;45.90;43.50;;;;;;;;;;5140654;27;20442;-82
2023/02/18 08:16:11;;;;;;;55.67;52.30;;;;;;;;;;5139122;27;20458;-82
2023/02/18 08:18:38;;;;;;;53.20;49.90;;;;;;;;;;5139942;27;20502;-82
2023/02/18 08:21:05;;;;;;;50.73;47.33;;;;;;;;;;5138743;27;20424;-81
2023/02/18 08:23:32;;;;;;;47.73;44.97;;;;;;;;;;5139533;27;20469;-81
2023/02/18 08:25:59;;;;;;;47.10;44.17;;;;;;;;;;5140759;27;20465;-83
2023/02/18 08:28:28;;;;;;;49.03;45.87;;;;;;;;;;5140644;27;20455;-82
2023/02/18 08:30:55;;;;;;;49.47;46.77;;;;;;;;;;5139231;27;20508;-81
2023/02/18 08:33:22;;;;;;;48.40;45.50;;;;;;;;;;5138621;27;20576;-82
2023/02/18 08:35:50;;;;;;;50.20;47.40;;;;;;;;;;5138434;27;20819;-82
2023/02/18 08:38:17;;;;;;;49.30;46.30;;;;;;;;;;5139450;27;20435;-82
2023/02/18 08:40:44;;;;;;;48.87;46.07;;;;;;;;;;5138328;27;20740;-82
2023/02/18 08:43:12;;;;;;;49.30;46.50;;;;;;;;;;5138940;27;20483;-82
2023/02/18 08:45:40;;;;;;;42.83;40.63;;;;;;;;;;5139153;27;20471;-82
2023/02/18 08:48:08;;;;;;;41.53;39.20;;;;;;;;;;5138655;27;20531;-82
2023/02/18 08:50:35;;;;;;;41.93;39.63;;;;;;;;;;5139903;27;20510;-82
2023/02/18 08:53:03;;;;;;;42.93;40.53;;;;;;;;;;5139522;27;20447;-81
2023/02/18 08:55:30;;;;;;;44.00;41.30;;;;;;;;;;5138921;27;20543;-82
2023/02/18 08:57:56;;;;;;;42.83;40.43;;;;;;;;;;5138430;27;21014;-82
2023/02/18 09:00:24;;;;;;;44.67;41.93;;;;;;;;;;5139355;28;20492;-82
2023/02/18 09:02:52;;;;;;;40.60;37.97;;;;;;;;;;5138319;28;20933;-85
2023/02/18 09:05:19;;;;;;;38.17;35.93;;;;;;;;;;5138107;28;20445;-81
2023/02/18 09:07:46;;;;;;;43.20;40.60;;;;;;;;;;5138484;28;20469;-81
2023/02/18 09:10:13;;;;;;;44.93;42.13;;;;;;;;;;5138022;28;21141;-81
2023/02/18 09:12:40;;;;;;;44.10;41.57;;;;;;;;;;5137931;28;20445;-81
2023/02/18 09:15:07;;;;;;;42.33;39.97;;;;;;;;;;5137624;27;20463;-82
2023/02/18 09:17:34;;;;;;;40.43;38.23;;;;;;;;;;5138260;28;20486;-81
2023/02/18 09:20:03;;;;;;;44.93;42.23;;;;;;;;;;5138098;28;20852;-81
2023/02/18 09:22:31;;;;;;;44.50;41.90;;;;;;;;;;5138492;28;20428;-81
2023/02/18 09:24:58;;;;;;;41.93;39.70;;;;;;;;;;5138444;28;20565;-81
2023/02/18 09:27:25;;;;;;;45.03;42.17;;;;;;;;;;5139246;28;20479;-81
2023/02/18 09:29:52;;;;;;;44.07;41.37;;;;;;;;;;5138802;28;20477;-81
2023/02/18 09:32:19;;;;;;;42.80;40.43;;;;;;;;;;5138544;27;20443;-81
2023/02/18 09:34:46;;;;;;;41.77;39.07;;;;;;;;;;5142106;27;20514;-81
2023/02/18 09:37:14;;;;;;;42.90;40.60;;;;;;;;;;5142319;27;20440;-82
2023/02/18 09:39:42;;;;;;;40.70;38.60;;;;;;;;;;5142779;27;20430;-82
2023/02/18 09:42:14;;;;;;;41.83;39.53;;;;;;;;;;5141749;27;20448;-82
2023/02/18 09:44:43;;;;;;;42.90;40.47;;;;;;;;;;5142631;27;20449;-82
2023/02/18 09:47:13;;;;;;;43.97;41.23;;;;;;;;;;5141838;27;20512;-82
2023/02/18 09:49:41;;;;;;;46.63;43.63;;;;;;;;;;5142779;27;20416;-82
2023/02/18 09:52:12;;;;;;;44.93;42.33;;;;;;;;;;5141665;27;20450;-82
2023/02/18 09:54:41;;;;;;;44.27;41.63;;;;;;;;;;5143646;27;20411;-83
2023/02/18 09:57:16;;;;;;;43.90;40.93;;;;;;;;;;5143193;27;20513;-84
2023/02/18 09:59:43;;;;;;;42.67;40.37;;;;;;;;;;5143235;27;20500;-84
2023/02/18 10:02:16;;;;;;;39.77;37.20;;;;;;;;;;5144200;27;20433;-84
2023/02/18 10:04:44;;;;;;;48.10;44.97;;;;;;;;;;5143574;27;20435;-84
2023/02/18 10:07:18;;;;;;;46.37;43.67;;;;;;;;;;5143610;27;20483;-83
2023/02/18 10:09:47;;;;;;;47.27;44.33;;;;;;;;;;5142731;27;20957;-83
2023/02/18 10:12:15;;;;;;;42.23;39.63;;;;;;;;;;5141374;27;20465;-83
2023/02/18 10:14:43;;;;;;;40.20;37.80;;;;;;;;;;5142955;27;20857;-85
2023/02/18 10:17:13;;;;;;;41.40;39.10;;;;;;;;;;5143435;27;20445;-84
2023/02/18 10:19:40;;;;;;;40.77;38.37;;;;;;;;;;5143275;27;20431;-83
2023/02/18 10:22:08;;;;;;;43.13;40.57;;;;;;;;;;5141456;27;20458;-82
2023/02/18 10:24:38;;;;;;;41.83;39.47;;;;;;;;;;5145422;27;20454;-84
2023/02/18 10:27:07;;;;;;;42.00;39.60;;;;;;;;;;5145624;27;21000;-83
2023/02/18 10:29:35;;;;;;;45.17;42.57;;;;;;;;;;5145096;27;20410;-84
2023/02/18 10:32:06;;;;;;;43.80;41.37;;;;;;;;;;5142980;27;20439;-84
2023/02/18 10:34:41;;;;;;;44.00;41.50;;;;;;;;;;5144915;27;20433;-81
2023/02/18 10:37:09;;;;;;;42.07;39.77;;;;;;;;;;5145135;27;20492;-81
2023/02/18 10:39:45;;;;;;;45.43;42.73;;;;;;;;;;5145298;27;20465;-80
2023/02/18 10:42:19;;;;;;;41.57;39.03;;;;;;;;;;5145078;27;20485;-80
2023/02/18 10:44:50;;;;;;;42.60;39.83;;;;;;;;;;5145382;27;20433;-80
2023/02/18 10:47:27;;;;;;;44.10;41.67;;;;;;;;;;5144828;27;20445;-80
2023/02/18 10:49:59;;;;;;;44.33;41.73;;;;;;;;;;5145898;27;20416;-81
2023/02/18 10:52:27;;;;;;;41.40;38.93;;;;;;;;;;5145007;27;20492;-81
2023/02/18 10:54:59;;;;;;;49.23;45.43;;;;;;;;;;5145338;27;20428;-80
2023/02/18 10:57:27;;;;;;;42.57;40.37;;;;;;;;;;5145293;27;20424;-80
2023/02/18 10:59:56;;;;;;;44.60;42.17;;;;;;;;;;5145341;27;20408;-80
2023/02/18 11:02:24;;;;;;;47.10;44.20;;;;;;;;;;5144580;27;20433;-80
2023/02/18 11:04:51;;;;;;;47.40;44.73;;;;;;;;;;5142396;27;20485;-81
2023/02/18 11:07:21;;;;;;;54.27;51.47;;;;;;;;;;5142969;27;20471;-81
2023/02/18 11:09:49;;;;;;;56.43;53.10;;;;;;;;;;5142792;27;20446;-82
2023/02/18 11:12:18;;;;;;;56.33;53.43;;;;;;;;;;5141986;27;20477;-81
2023/02/18 11:14:49;;;;;;;57.00;53.80;;;;;;;;;;5142104;27;20484;-80
2023/02/18 11:17:18;;;;;;;54.93;51.73;;;;;;;;;;5143716;27;20494;-80
2023/02/18 11:19:51;;;;;;;48.70;46.03;;;;;;;;;;5141871;27;20444;-81
2023/02/18 11:22:19;;;;;;;45.43;42.80;;;;;;;;;;5140948;27;20817;-80
2023/02/18 11:24:49;;;;;;;47.40;44.60;;;;;;;;;;5140597;27;20455;-81
2023/02/18 11:27:20;;;;;;;52.10;49.10;;;;;;;;;;5141165;27;20784;-81
2023/02/18 11:29:49;;;;;;;48.70;45.90;;;;;;;;;;5141323;27;20437;-81
2023/02/18 11:32:16;;;;;;;51.67;48.97;;;;;;;;;;5140419;27;20445;-80
2023/02/18 11:34:44;;;;;;;46.57;44.03;;;;;;;;;;5139130;27;20484;-80
2023/02/18 11:37:13;;;;;;;52.63;49.73;;;;;;;;;;5138822;27;20434;-80
2023/02/18 11:39:43;;;;;;;51.93;48.90;;;;;;;;;;5137455;27;20842;-75
2023/02/18 11:42:13;;;;;;;49.13;46.40;;;;;;;;;;5134865;27;20932;-76
2023/02/18 11:44:42;;;;;;;50.67;47.87;;;;;;;;;;5135871;27;20427;-76
2023/02/18 11:47:20;;;;;;;50.13;47.20;;;;;;;;;;5114205;28;20520;-76
2023/02/18 11:49:59;;;;;;;49.70;46.50;;;;;;;;;;5115317;28;20420;-76
2023/02/18 11:52:28;;;;;;;53.77;50.73;;;;;;;;;;5114614;28;20487;-75
2023/02/18 11:55:02;;;;;;;47.27;44.67;;;;;;;;;;5114536;28;20456;-76
2023/02/18 11:57:29;;;;;;;46.40;43.80;;;;;;;;;;5113997;28;20459;-76
2023/02/18 11:59:58;;;;;;;47.77;45.10;;;;;;;;;;5114572;28;20469;-76
2023/02/18 12:02:30;;;;;;;52.90;50.00;;;;;;;;;;5114174;28;20412;-75
2023/02/18 12:05:00;;;;;;;47.07;44.37;;;;;;;;;;5114797;28;20509;-76
2023/02/18 12:07:31;;;;;;;47.70;45.00;;;;;;;;;;5115209;28;20481;-76
2023/02/18 12:09:59;;;;;;;45.87;43.17;;;;;;;;;;5114731;28;20433;-77
2023/02/18 12:12:28;;;;;;;43.60;41.20;;;;;;;;;;5113948;28;20501;-75
2023/02/18 12:14:55;;;;;;;47.93;45.23;;;;;;;;;;5114388;28;20459;-75
2023/02/18 12:17:32;;;;;;;52.17;49.57;;;;;;;;;;5114608;28;20471;-76
2023/02/18 12:20:16;;;;;;;49.93;47.33;;;;;;;;;;5114871;28;20431;-76
2023/02/18 12:22:44;;;;;;;48.13;45.53;;;;;;;;;;5113231;28;20529;-76
2023/02/18 12:25:21;;;;;;;46.17;43.57;;;;;;;;;;5114309;28;20464;-75
2023/02/18 12:27:50;;;;;;;44.73;42.33;;;;;;;;;;5113994;28;20392;-76
2023/02/18 12:30:29;;;;;;;45.27;42.80;;;;;;;;;;5113992;28;20450;-76
2023/02/18 12:33:01;;;;;;;45.77;43.17;;;;;;;;;;5113114;28;20469;-76
2023/02/18 12:35:41;;;;;;;42.53;40.13;;;;;;;;;;5114158;28;20464;-76
2023/02/18 12:38:18;;;;;;;45.20;42.60;;;;;;;;;;5113998;28;20459;-76
2023/02/18 12:40:57;;;;;;;44.03;41.77;;;;;;;;;;5114284;28;20508;-76
2023/02/18 12:43:31;;;;;;;47.77;45.27;;;;;;;;;;5113055;28;20474;-76
2023/02/18 12:46:10;;;;;;;49.50;46.83;;;;;;;;;;5115417;27;20472;-76
2023/02/18 12:48:49;;;;;;;51.37;48.80;;;;;;;;;;5133560;27;20491;-76
2023/02/18 12:51:31;;;;;;;45.40;43.10;;;;;;;;;;5134330;27;20454;-77
2023/02/18 12:54:09;;;;;;;52.50;49.60;;;;;;;;;;5134124;27;20470;-76
2023/02/18 12:56:51;;;;;;;48.10;45.60;;;;;;;;;;5134482;27;20471;-77
2023/02/18 12:59:27;;;;;;;45.70;43.40;;;;;;;;;;5134524;27;20458;-76
2023/02/18 13:02:00;;;;;;;45.20;42.90;;;;;;;;;;5134185;28;20428;-76
2023/02/18 13:04:51;;;;;;;48.63;46.03;;;;;;;;;;5133969;28;20472;-77
2023/02/18 13:07:25;;;;;;;45.70;43.40;;;;;;;;;;5113882;27;20489;-76
2023/02/18 13:10:04;;;;;;;47.83;45.47;;;;;;;;;;5138758;27;20494;-76
2023/02/18 13:12:36;;;;;;;47.00;44.40;;;;;;;;;;5138195;27;20455;-76
2023/02/18 13:15:05;;;;;;;48.00;45.40;;;;;;;;;;5137981;27;20516;-76
2023/02/18 13:17:34;;;;;;;51.90;49.20;;;;;;;;;;5139088;27;20424;-76
2023/02/18 13:20:04;;;;;;;47.03;44.40;;;;;;;;;;5138799;27;20420;-76
2023/02/18 13:22:33;;;;;;;51.00;48.50;;;;;;;;;;5138019;27;20471;-76
2023/02/18 13:25:00;;;;;;;46.70;44.10;;;;;;;;;;5138522;27;20494;-76
2023/02/18 13:27:30;;;;;;;49.40;46.80;;;;;;;;;;5138255;27;20447;-77
2023/02/18 13:30:10;;;;;;;49.17;46.67;;;;;;;;;;5138237;27;20477;-77
2023/02/18 13:32:40;;;;;;;51.23;48.37;;;;;;;;;;5137952;27;20484;-76
2023/02/18 13:35:10;;;;;;;48.00;45.60;;;;;;;;;;5138364;27;20532;-77
2023/02/18 13:37:45;;;;;;;49.83;47.13;;;;;;;;;;5138555;27;20473;-78
2023/02/18 13:40:18;;;;;;;45.93;43.60;;;;;;;;;;5137984;27;20495;-76
2023/02/18 13:42:45;;;;;;;50.43;47.93;;;;;;;;;;5137788;27;20406;-76
2023/02/18 13:45:32;;;;;;;45.67;43.17;;;;;;;;;;5138330;27;20470;-76
2023/02/18 13:48:00;;;;;;;51.87;48.90;;;;;;;;;;5137856;27;20436;-76
2023/02/18 13:50:41;;;;;;;51.70;48.90;;;;;;;;;;5138253;27;20449;-76
2023/02/18 13:53:23;;;;;;;52.37;49.07;;;;;;;;;;5136620;27;20967;-76
2023/02/18 13:55:55;;;;;;;50.20;46.90;;;;;;;;;;5137609;27;20470;-75
2023/02/18 13:58:23;;;;;;;48.43;45.83;;;;;;;;;;5138075;27;20491;-76
2023/02/18 14:00:51;;;;;;;47.53;44.93;;;;;;;;;;5137598;27;20497;-76
2023/02/18 14:03:32;;;;;;;48.87;46.20;;;;;;;;;;5136346;27;20438;-76
2023/02/18 14:05:59;;;;;;;48.70;46.10;;;;;;;;;;5137363;27;20561;-76
2023/02/18 14:08:35;;;;;;;46.97;44.47;;;;;;;;;;5137489;27;20510;-76
2023/02/18 14:11:20;;;;;;;49.87;47.10;;;;;;;;;;5137614;27;20440;-76
2023/02/18 14:13:49;;;;;;;45.57;43.13;;;;;;;;;;5137102;27;20452;-77
2023/02/18 14:16:16;;;;;;;49.33;46.43;;;;;;;;;;5137097;27;20987;-77
2023/02/18 14:18:56;;;;;;;49.20;46.33;;;;;;;;;;5137893;27;20734;-83
2023/02/18 14:21:36;;;;;;;47.13;44.43;;;;;;;;;;5143857;27;20455;-82
2023/02/18 14:24:06;;;;;;;46.00;43.50;;;;;;;;;;5143100;27;20440;-82
2023/02/18 14:26:34;;;;;;;47.60;44.80;;;;;;;;;;5140686;27;20483;-81
2023/02/18 14:29:04;;;;;;;46.63;43.90;;;;;;;;;;5142896;27;20472;-82